createdAt,value
2023-03-17T00:02:12.439Z,37.00
2023-03-17T00:04:40.522Z,36.50
2023-03-17T00:07:15.705Z,37.67
2023-03-17T00:09:45.347Z,37.33
2023-03-17T00:12:15.443Z,38.67
2023-03-17T00:14:46.911Z,39.67
2023-03-17T00:17:16.400Z,37.33
2023-03-17T00:19:44.785Z,36.50
2023-03-17T00:22:22.306Z,32.00
2023-03-17T00:24:50.388Z,31.00
2023-03-17T00:27:19.169Z,33.00
2023-03-17T00:29:47.192Z,35.00
2023-03-17T00:32:19.554Z,33.50
2023-03-17T00:34:48.436Z,30.50
2023-03-17T00:37:16.193Z,33.00
2023-03-17T00:39:44.026Z,35.50
2023-03-17T00:42:13.662Z,37.00
2023-03-17T00:44:41.671Z,34.00
2023-03-17T00:47:12.062Z,28.00
2023-03-17T00:49:41.974Z,26.33
2023-03-17T00:52:10.828Z,24.50
2023-03-17T00:54:40.184Z,21.67
2023-03-17T00:57:10.976Z,23.00
2023-03-17T00:59:42.736Z,22.00
2023-03-17T01:02:13.957Z,22.50
2023-03-17T01:04:45.591Z,21.00
2023-03-17T01:07:15.606Z,17.00
2023-03-17T01:09:45.313Z,18.33
2023-03-17T01:12:16.526Z,17.50
2023-03-17T01:14:44.260Z,18.50
2023-03-17T01:17:18.811Z,18.00
2023-03-17T01:19:48.103Z,20.50
2023-03-17T01:22:15.947Z,18.00
2023-03-17T01:24:44.761Z,22.33
2023-03-17T01:27:13.042Z,20.50
2023-03-17T01:29:41.673Z,19.50
2023-03-17T01:32:09.540Z,22.50
2023-03-17T01:34:38.225Z,21.33
2023-03-17T01:37:07.119Z,22.50
2023-03-17T01:39:35.420Z,27.50
2023-03-17T01:42:04.454Z,24.50
2023-03-17T01:44:33.633Z,22.00
2023-03-17T01:47:01.456Z,24.00
2023-03-17T01:49:36.901Z,18.00
2023-03-17T01:52:15.164Z,24.00
2023-03-17T01:55:12.710Z,27.00
2023-03-17T01:57:56.541Z,27.67
2023-03-17T02:00:28.787Z,27.00
2023-03-17T02:02:58.521Z,24.67
2023-03-17T02:05:31.155Z,29.50
2023-03-17T02:08:00.765Z,30.67
2023-03-17T02:10:30.371Z,23.00
2023-03-17T02:13:04.086Z,25.00
2023-03-17T02:15:52.362Z,24.50
2023-03-17T02:18:24.051Z,26.00
2023-03-17T02:21:39.642Z,19.50
2023-03-17T02:24:48.882Z,0.00
2023-03-17T02:27:39.660Z,28.00
2023-03-17T02:30:13.147Z,25.00
2023-03-17T02:32:41.414Z,23.50
2023-03-17T02:35:10.388Z,22.50
2023-03-17T02:37:39.140Z,26.00
2023-03-17T02:40:11.428Z,21.50
2023-03-17T02:42:41.299Z,24.00
2023-03-17T02:45:13.314Z,25.00
2023-03-17T02:47:42.371Z,21.00
2023-03-17T02:50:24.027Z,24.00
2023-03-17T02:52:52.247Z,24.00
2023-03-17T02:55:20.874Z,24.00
2023-03-17T02:57:49.581Z,20.00
2023-03-17T03:00:18.041Z,20.00
2023-03-17T03:02:47.156Z,18.00
2023-03-17T03:05:15.031Z,18.00
2023-03-17T03:07:43.734Z,21.00
2023-03-17T03:10:12.071Z,22.00
2023-03-17T03:12:40.704Z,13.00
2023-03-17T03:15:09.862Z,20.00
2023-03-17T03:17:37.705Z,23.50
2023-03-17T03:20:06.904Z,20.00
2023-03-17T03:22:34.657Z,25.00
2023-03-17T03:25:03.567Z,24.50
2023-03-17T03:27:32.664Z,25.50
2023-03-17T03:30:01.167Z,22.00
2023-03-17T03:32:28.986Z,20.50
2023-03-17T03:34:57.030Z,26.00
2023-03-17T03:37:26.167Z,29.00
2023-03-17T03:39:53.920Z,26.00
2023-03-17T03:42:21.691Z,25.00
2023-03-17T03:44:49.451Z,26.00
2023-03-17T03:47:19.048Z,28.33
2023-03-17T03:49:46.891Z,17.00
2023-03-17T03:52:15.817Z,31.00
2023-03-17T03:54:44.640Z,30.50
2023-03-17T03:57:13.445Z,29.00
2023-03-17T03:59:42.961Z,29.33
2023-03-17T04:02:11.845Z,29.00
2023-03-17T04:04:42.270Z,26.00
2023-03-17T04:07:11.394Z,29.50
2023-03-17T04:09:39.469Z,29.50
2023-03-17T04:12:09.396Z,29.50
2023-03-17T04:14:38.215Z,34.00
2023-03-17T04:17:07.000Z,33.00
2023-03-17T04:19:34.924Z,34.00
2023-03-17T04:22:02.752Z,33.00
2023-03-17T04:24:32.457Z,34.33
2023-03-17T04:27:05.868Z,38.33
2023-03-17T04:29:34.580Z,32.00
2023-03-17T04:32:04.909Z,31.67
2023-03-17T04:34:32.846Z,33.00
2023-03-17T04:37:00.753Z,21.50
2023-03-17T04:39:29.200Z,34.00
2023-03-17T04:41:57.100Z,30.00
2023-03-17T04:44:25.006Z,36.00
2023-03-17T04:46:53.759Z,33.00
2023-03-17T04:49:22.772Z,36.00
2023-03-17T04:51:50.616Z,33.00
2023-03-17T04:54:18.751Z,22.00
2023-03-17T04:56:47.601Z,28.50
2023-03-17T04:59:16.437Z,28.50
2023-03-17T05:01:45.301Z,34.00
2023-03-17T05:04:22.095Z,31.00
2023-03-17T05:07:00.067Z,27.50
2023-03-17T05:09:28.899Z,24.67
2023-03-17T05:11:56.790Z,24.50
2023-03-17T05:14:24.746Z,25.00
2023-03-17T05:16:54.351Z,26.67
2023-03-17T05:19:23.091Z,37.00
2023-03-17T05:21:51.675Z,35.00
2023-03-17T05:24:19.598Z,34.00
2023-03-17T05:26:47.412Z,33.50
2023-03-17T05:29:15.208Z,32.00
2023-03-17T05:31:43.485Z,30.00
2023-03-17T05:34:11.445Z,31.00
2023-03-17T05:36:39.363Z,32.00
2023-03-17T05:39:09.234Z,32.00
2023-03-17T05:41:38.050Z,26.00
2023-03-17T05:44:06.806Z,22.00
2023-03-17T05:46:35.636Z,27.00
2023-03-17T05:49:04.499Z,30.00
2023-03-17T05:51:34.778Z,30.00
2023-03-17T05:54:04.767Z,30.00
2023-03-17T05:56:34.553Z,27.00
2023-03-17T05:59:03.494Z,29.00
2023-03-17T06:01:32.518Z,22.50
2023-03-17T06:04:01.951Z,25.00
2023-03-17T06:06:29.897Z,31.50
2023-03-17T06:08:59.010Z,31.00
2023-03-17T06:11:27.560Z,6.00
2023-03-17T06:13:57.201Z,29.00
2023-03-17T06:16:29.048Z,32.00
2023-03-17T06:18:58.590Z,30.00
2023-03-17T06:21:27.472Z,26.50
2023-03-17T06:23:57.002Z,29.00
2023-03-17T06:26:26.338Z,25.50
2023-03-17T06:28:56.270Z,31.33
2023-03-17T06:31:26.646Z,46.00
2023-03-17T06:33:55.402Z,27.00
2023-03-17T06:36:26.081Z,33.33
2023-03-17T06:38:55.631Z,27.33
2023-03-17T06:41:25.285Z,39.00
2023-03-17T06:43:54.035Z,21.67
2023-03-17T06:46:23.518Z,24.00
2023-03-17T06:48:52.152Z,23.00
2023-03-17T06:51:21.626Z,22.00
2023-03-17T06:53:50.225Z,19.67
2023-03-17T06:56:29.400Z,21.00
2023-03-17T06:58:59.041Z,21.00
2023-03-17T07:01:28.854Z,23.00
2023-03-17T07:03:58.897Z,83.67
2023-03-17T07:06:28.771Z,55.25
2023-03-17T07:09:00.941Z,23.33
2023-03-17T07:11:32.808Z,18.33
2023-03-17T07:14:01.617Z,19.00
2023-03-17T07:16:31.155Z,17.33
2023-03-17T07:19:02.223Z,19.00
2023-03-17T07:21:31.813Z,19.67
2023-03-17T07:24:00.469Z,18.67
2023-03-17T07:26:29.995Z,20.67
2023-03-17T07:29:01.003Z,11.00
2023-03-17T07:31:30.798Z,20.00
2023-03-17T07:33:59.551Z,21.33
2023-03-17T07:36:28.207Z,23.50
2023-03-17T07:38:57.056Z,17.00
2023-03-17T07:41:25.741Z,12.00
2023-03-17T07:43:53.469Z,13.00
2023-03-17T07:46:22.292Z,18.00
2023-03-17T07:48:50.148Z,0.00
2023-03-17T07:51:22.402Z,12.00
2023-03-17T07:53:52.051Z,27.33
2023-03-17T07:56:21.508Z,17.00
2023-03-17T07:58:49.180Z,12.00
2023-03-17T08:01:17.708Z,12.00
2023-03-17T08:03:46.697Z,12.00
2023-03-17T08:06:14.452Z,19.00
2023-03-17T08:08:42.264Z,8.00
2023-03-17T08:11:10.862Z,6.67
2023-03-17T08:13:39.472Z,9.67
2023-03-17T08:16:08.196Z,13.00
2023-03-17T08:18:37.270Z,10.67
2023-03-17T08:21:06.356Z,12.50
2023-03-17T08:23:35.080Z,10.00
2023-03-17T08:26:05.200Z,11.50
2023-03-17T08:28:34.661Z,10.67
2023-03-17T08:31:18.204Z,12.00
2023-03-17T08:33:51.492Z,19.00
2023-03-17T08:36:21.437Z,9.00
2023-03-17T08:38:50.408Z,12.00
2023-03-17T08:41:22.948Z,11.00
2023-03-17T08:43:51.865Z,8.00
2023-03-17T08:46:27.239Z,10.00
2023-03-17T08:48:58.232Z,11.67
2023-03-17T08:51:34.906Z,5.50
2023-03-17T08:54:06.163Z,7.40
2023-03-17T08:56:34.340Z,8.00
2023-03-17T08:59:02.127Z,6.00
2023-03-17T09:01:29.879Z,5.50
2023-03-17T09:03:59.382Z,11.00
2023-03-17T09:06:27.808Z,5.00
2023-03-17T09:08:55.798Z,7.00
2023-03-17T09:11:29.245Z,12.33
2023-03-17T09:13:59.317Z,10.00
2023-03-17T09:16:28.661Z,5.00
2023-03-17T09:18:58.269Z,5.00
2023-03-17T09:21:28.138Z,7.00
2023-03-17T09:23:55.954Z,6.00
2023-03-17T09:26:25.316Z,4.00
2023-03-17T09:28:53.452Z,7.00
2023-03-17T09:31:21.709Z,5.50
2023-03-17T09:33:49.469Z,3.00
2023-03-17T09:36:17.247Z,8.00
2023-03-17T09:38:47.971Z,51.00
2023-03-17T09:41:23.661Z,3.50
2023-03-17T09:44:38.732Z,11.00
2023-03-17T09:47:59.150Z,14.00
2023-03-17T09:50:54.170Z,32.00
2023-03-17T09:54:04.297Z,7.00
2023-03-17T09:56:35.993Z,13.50
2023-03-17T09:59:35.344Z,5.00
2023-03-17T10:02:03.230Z,6.00
2023-03-17T10:04:32.408Z,14.00
2023-03-17T10:07:06.832Z,6.00
2023-03-17T10:10:04.261Z,6.00
2023-03-17T10:13:17.850Z,5.50
2023-03-17T10:16:07.795Z,14.00
2023-03-17T10:18:56.956Z,3.00
2023-03-17T10:21:41.788Z,7.00
2023-03-17T10:24:12.387Z,7.00
2023-03-17T10:26:53.443Z,6.50
2023-03-17T10:29:24.120Z,8.00
2023-03-17T10:31:56.367Z,7.50
2023-03-17T10:34:37.738Z,15.00
2023-03-17T10:37:09.833Z,10.67
2023-03-17T10:39:50.468Z,10.00
2023-03-17T10:42:33.140Z,12.00
2023-03-17T10:45:28.054Z,3.00
2023-03-17T10:48:00.004Z,11.00
2023-03-17T10:50:49.597Z,5.00
2023-03-17T10:53:29.959Z,37.33
2023-03-17T10:56:20.460Z,11.67
2023-03-17T10:58:51.595Z,8.00
2023-03-17T11:01:36.597Z,8.00
2023-03-17T11:04:33.978Z,11.50
2023-03-17T11:07:34.777Z,19.33
2023-03-17T11:10:24.804Z,6.00
2023-03-17T11:13:02.106Z,7.00
2023-03-17T11:15:48.295Z,6.00
2023-03-17T11:18:52.852Z,6.00
2023-03-17T11:21:32.076Z,10.00
2023-03-17T11:24:25.416Z,19.00
2023-03-17T11:27:31.779Z,6.00
2023-03-17T11:30:38.550Z,7.00
2023-03-17T11:33:34.811Z,6.00
2023-03-17T11:36:36.465Z,7.00
2023-03-17T11:39:20.893Z,8.00
2023-03-17T11:42:51.554Z,7.00
2023-03-17T11:46:13.424Z,5.00
2023-03-17T11:49:14.960Z,9.00
2023-03-17T11:52:16.549Z,6.00
2023-03-17T11:55:04.853Z,12.00
2023-03-17T11:58:10.749Z,7.40
2023-03-17T12:00:52.687Z,9.00
2023-03-17T12:03:48.860Z,9.00
2023-03-17T12:06:33.927Z,7.00
2023-03-17T12:09:20.430Z,6.00
2023-03-17T12:11:52.746Z,7.17
2023-03-17T12:14:36.128Z,6.43
2023-03-17T12:17:27.956Z,5.50
2023-03-17T12:20:49.000Z,8.50
2023-03-17T12:23:56.832Z,7.00
2023-03-17T12:26:53.978Z,12.00
2023-03-17T12:30:08.048Z,10.00
2023-03-17T12:33:21.849Z,9.67
2023-03-17T12:35:52.284Z,4.00
2023-03-17T12:38:40.407Z,5.00
2023-03-17T12:42:02.247Z,9.00
2023-03-17T12:45:15.130Z,5.00
2023-03-17T12:48:08.211Z,6.00
2023-03-17T12:51:35.060Z,6.00
2023-03-17T12:54:04.240Z,6.00
2023-03-17T12:56:34.591Z,7.50
2023-03-17T12:59:09.927Z,7.00
2023-03-17T13:01:59.346Z,6.40
2023-03-17T13:04:37.037Z,3.00
2023-03-17T13:07:22.261Z,6.00
2023-03-17T13:09:57.538Z,9.00
2023-03-17T13:12:40.527Z,7.00
2023-03-17T13:15:39.833Z,11.00
2023-03-17T13:18:36.841Z,7.33
2023-03-17T13:21:12.807Z,5.67
2023-03-17T13:24:16.850Z,7.00
2023-03-17T13:27:01.928Z,5.00
2023-03-17T13:29:32.832Z,5.00
2023-03-17T13:32:34.102Z,4.00
2023-03-17T13:35:01.820Z,5.00
2023-03-17T13:37:53.084Z,9.83
2023-03-17T13:40:24.248Z,8.00
2023-03-17T13:43:52.294Z,6.00
2023-03-17T13:46:40.131Z,6.80
2023-03-17T13:49:21.463Z,6.00
2023-03-17T13:52:30.569Z,6.00
2023-03-17T13:55:20.721Z,8.00
2023-03-17T13:58:24.339Z,6.00
2023-03-17T14:01:03.877Z,13.67
2023-03-17T14:03:51.370Z,7.86
2023-03-17T14:06:28.204Z,7.00
2023-03-17T14:09:08.410Z,12.50
2023-03-17T14:11:40.341Z,7.00
2023-03-17T14:15:07.546Z,5.00
2023-03-17T14:17:54.145Z,11.50
2023-03-17T14:20:27.430Z,17.33
2023-03-17T14:23:01.731Z,7.00
2023-03-17T14:25:40.768Z,9.00
2023-03-17T14:28:16.008Z,6.00
2023-03-17T14:31:02.114Z,10.00
2023-03-17T14:33:38.825Z,7.00
2023-03-17T14:36:14.313Z,7.00
2023-03-17T14:38:57.202Z,10.00
2023-03-17T14:41:28.454Z,9.00
2023-03-17T14:44:02.329Z,19.50
2023-03-17T14:46:37.186Z,20.00
2023-03-17T14:49:19.165Z,24.33
2023-03-17T14:51:53.695Z,9.67
2023-03-17T14:54:32.876Z,10.00
2023-03-17T14:57:14.921Z,18.00
2023-03-17T15:00:16.638Z,8.00
2023-03-17T15:02:59.893Z,11.00
2023-03-17T15:05:41.437Z,9.33
2023-03-17T15:08:44.490Z,9.50
2023-03-17T15:11:22.352Z,20.67
2023-03-17T15:14:04.924Z,10.00
2023-03-17T15:16:36.578Z,16.00
2023-03-17T15:19:40.721Z,18.00
2023-03-17T15:22:36.152Z,10.00
2023-03-17T15:25:38.652Z,11.00
2023-03-17T15:28:18.428Z,8.00
2023-03-17T15:30:54.461Z,7.00
2023-03-17T15:33:37.130Z,8.00
2023-03-17T15:36:07.946Z,7.60
2023-03-17T15:38:39.148Z,8.20
2023-03-17T15:41:07.568Z,6.50
2023-03-17T15:43:35.502Z,11.00
2023-03-17T15:46:22.465Z,12.00
2023-03-17T15:48:50.570Z,12.50
2023-03-17T15:51:19.286Z,12.50
2023-03-17T15:53:48.886Z,16.33
2023-03-17T15:56:21.959Z,16.00
2023-03-17T15:58:52.472Z,13.00
2023-03-17T16:01:20.970Z,11.00
2023-03-17T16:03:49.650Z,9.00
2023-03-17T16:06:22.461Z,8.00
2023-03-17T16:08:52.232Z,9.40
2023-03-17T16:11:28.447Z,13.00
2023-03-17T16:13:59.758Z,15.00
2023-03-17T16:16:39.217Z,13.00
2023-03-17T16:19:20.316Z,11.00
2023-03-17T16:21:49.148Z,11.00
2023-03-17T16:24:24.152Z,25.00
2023-03-17T16:26:54.382Z,30.00
2023-03-17T16:29:24.806Z,40.25
2023-03-17T16:31:54.386Z,52.00
2023-03-17T16:34:24.416Z,50.50
2023-03-17T16:36:52.179Z,52.50
2023-03-17T16:39:24.704Z,44.00
2023-03-17T16:41:55.334Z,42.50
2023-03-17T16:44:24.094Z,41.50
2023-03-17T16:46:53.757Z,39.00
2023-03-17T16:49:23.369Z,34.00
2023-03-17T16:51:52.852Z,29.00
2023-03-17T16:54:21.504Z,23.00
2023-03-17T16:56:51.525Z,22.00
2023-03-17T16:59:24.568Z,24.33
2023-03-17T17:01:55.010Z,22.00
2023-03-17T17:04:26.835Z,23.00
2023-03-17T17:06:56.792Z,24.00
2023-03-17T17:09:26.241Z,23.00
2023-03-17T17:11:56.194Z,23.00
2023-03-17T17:14:24.865Z,19.00
2023-03-17T17:16:54.528Z,21.00
2023-03-17T17:19:24.043Z,33.00
2023-03-17T17:21:51.881Z,68.50
2023-03-17T17:24:19.707Z,67.50
2023-03-17T17:26:47.576Z,74.00
2023-03-17T17:29:17.175Z,89.50
2023-03-17T17:31:46.843Z,63.50
2023-03-17T17:34:16.363Z,37.67
2023-03-17T17:36:46.082Z,40.67
2023-03-17T17:39:15.686Z,37.33
2023-03-17T17:41:45.376Z,36.00
2023-03-17T17:44:16.011Z,44.75
2023-03-17T17:46:45.693Z,48.00
2023-03-17T17:49:16.198Z,54.75
2023-03-17T17:51:45.174Z,61.00
2023-03-17T17:54:13.082Z,71.00
2023-03-17T17:56:46.866Z,87.50
2023-03-17T17:59:17.489Z,121.00
2023-03-17T18:01:48.136Z,166.00
2023-03-17T18:04:18.128Z,172.33
2023-03-17T18:06:47.965Z,187.60
2023-03-17T18:09:18.710Z,213.50
2023-03-17T18:11:51.321Z,216.00
2023-03-17T18:14:21.467Z,214.80
2023-03-17T18:16:52.312Z,192.00
2023-03-17T18:19:23.304Z,159.75
2023-03-17T18:21:53.102Z,105.33
2023-03-17T18:24:22.875Z,139.00
2023-03-17T18:26:52.712Z,120.33
2023-03-17T18:29:22.544Z,121.33
2023-03-17T18:31:56.522Z,112.75
2023-03-17T18:34:37.930Z,103.75
2023-03-17T18:37:08.956Z,116.67
2023-03-17T18:39:41.309Z,115.50
2023-03-17T18:42:12.038Z,113.67
2023-03-17T18:44:41.805Z,107.67
2023-03-17T18:47:13.486Z,106.75
2023-03-17T18:49:46.071Z,97.25
2023-03-17T18:52:17.562Z,92.33
2023-03-17T18:54:48.099Z,103.50
2023-03-17T18:57:18.717Z,137.25
2023-03-17T18:59:49.350Z,160.75
2023-03-17T19:02:20.714Z,145.00
2023-03-17T19:04:51.587Z,152.00
2023-03-17T19:07:22.456Z,173.00
2023-03-17T19:09:53.077Z,155.25
2023-03-17T19:12:24.102Z,126.00
2023-03-17T19:14:54.985Z,137.75
2023-03-17T19:17:25.674Z,103.00
2023-03-17T19:19:58.051Z,117.33
2023-03-17T19:22:28.069Z,115.00
2023-03-17T19:24:57.781Z,114.50
2023-03-17T19:27:27.683Z,111.25
2023-03-17T19:29:57.383Z,115.33
2023-03-17T19:32:27.211Z,105.00
2023-03-17T19:34:57.848Z,107.25
2023-03-17T19:37:27.565Z,105.00
2023-03-17T19:39:57.218Z,82.50
2023-03-17T19:42:27.871Z,72.25
2023-03-17T19:44:58.445Z,85.00
2023-03-17T19:47:28.092Z,76.75
2023-03-17T19:49:58.652Z,78.50
2023-03-17T19:52:29.294Z,69.50
2023-03-17T19:54:59.180Z,90.67
2023-03-17T19:57:29.768Z,76.25
2023-03-17T20:00:00.298Z,82.25
2023-03-17T20:02:30.975Z,86.50
2023-03-17T20:05:00.902Z,88.50
2023-03-17T20:07:32.788Z,87.00
2023-03-17T20:10:03.841Z,90.00
2023-03-17T20:12:38.120Z,67.25
2023-03-17T20:15:12.541Z,84.00
2023-03-17T20:17:43.651Z,61.25
2023-03-17T20:20:14.673Z,51.67
2023-03-17T20:22:45.313Z,59.00
2023-03-17T20:25:15.039Z,59.33
2023-03-17T20:27:45.569Z,67.25
2023-03-17T20:30:17.154Z,62.00
2023-03-17T20:32:45.342Z,71.00
2023-03-17T20:35:15.966Z,74.00
2023-03-17T20:37:46.873Z,79.00
2023-03-17T20:40:18.163Z,79.50
2023-03-17T20:42:48.712Z,86.00
2023-03-17T20:45:20.134Z,102.50
2023-03-17T20:47:50.826Z,112.75
2023-03-17T20:50:22.970Z,111.50
2023-03-17T20:52:53.970Z,108.50
2023-03-17T20:55:23.896Z,124.25
2023-03-17T20:57:53.607Z,103.50
2023-03-17T21:00:23.617Z,81.75
2023-03-17T21:02:53.440Z,60.00
2023-03-17T21:05:27.669Z,63.67
2023-03-17T21:07:58.411Z,72.25
2023-03-17T21:10:29.249Z,67.00
2023-03-17T21:12:59.796Z,62.75
2023-03-17T21:15:29.670Z,61.67
2023-03-17T21:17:59.427Z,78.50
2023-03-17T21:20:29.644Z,62.67
2023-03-17T21:23:00.509Z,68.67
2023-03-17T21:25:31.274Z,68.33
2023-03-17T21:28:01.678Z,64.00
2023-03-17T21:30:34.012Z,77.00
2023-03-17T21:33:05.573Z,72.00
2023-03-17T21:35:36.911Z,68.00
2023-03-17T21:38:07.026Z,65.00
2023-03-17T21:40:37.102Z,75.25
2023-03-17T21:43:08.071Z,80.25
2023-03-17T21:45:39.484Z,84.75
2023-03-17T21:48:10.598Z,80.00
2023-03-17T21:50:41.279Z,89.25
2023-03-17T21:53:15.942Z,82.00
2023-03-17T21:55:45.666Z,72.50
2023-03-17T21:58:15.335Z,62.67
2023-03-17T22:00:46.346Z,38.67
2023-03-17T22:03:16.192Z,60.33
2023-03-17T22:05:47.313Z,64.00
2023-03-17T22:08:21.638Z,70.75
2023-03-17T22:10:52.991Z,67.50
2023-03-17T22:13:22.740Z,64.00
2023-03-17T22:15:53.647Z,70.75
2023-03-17T22:18:24.187Z,71.25
2023-03-17T22:20:59.714Z,73.50
2023-03-17T22:23:30.958Z,76.25
2023-03-17T22:26:01.505Z,73.00
2023-03-17T22:28:32.533Z,68.50
2023-03-17T22:31:04.984Z,60.33
2023-03-17T22:33:35.084Z,58.67
2023-03-17T22:36:05.743Z,58.33
2023-03-17T22:38:35.892Z,47.00
2023-03-17T22:41:10.555Z,50.00
2023-03-17T22:43:41.757Z,42.00
2023-03-17T22:46:13.201Z,47.00
2023-03-17T22:48:43.217Z,42.00
2023-03-17T22:51:19.604Z,40.00
2023-03-17T22:53:48.192Z,38.00
2023-03-17T22:56:19.230Z,37.50
2023-03-17T22:58:48.314Z,38.00
2023-03-17T23:01:19.538Z,39.33
2023-03-17T23:03:48.381Z,38.00
2023-03-17T23:06:17.865Z,35.50
2023-03-17T23:08:48.220Z,37.00
2023-03-17T23:11:24.066Z,39.00
2023-03-17T23:13:54.262Z,43.33
2023-03-17T23:16:24.302Z,45.00
2023-03-17T23:18:53.937Z,44.33
2023-03-17T23:21:33.433Z,52.33
2023-03-17T23:24:05.161Z,56.33
2023-03-17T23:26:37.132Z,57.33
2023-03-17T23:29:09.679Z,58.33
2023-03-17T23:31:41.042Z,60.67
2023-03-17T23:34:12.204Z,67.00
2023-03-17T23:36:42.351Z,54.67
2023-03-17T23:39:12.236Z,51.67
2023-03-17T23:41:41.992Z,52.00
2023-03-17T23:44:11.984Z,44.33
2023-03-17T23:46:41.866Z,46.00
2023-03-17T23:49:12.344Z,46.00
2023-03-17T23:51:42.023Z,47.00
2023-03-17T23:54:11.652Z,45.00
2023-03-17T23:56:41.282Z,45.00
2023-03-17T23:59:11.893Z,45.00
